FAD3064 MDSI-MDBH
Flight info
| Callsign | FAD3064 |
|---|---|
| Flight time | 0h 36m |
| Altitude | 1000 |
| Route | VFR |
| Aircraft | UH1/L-SFG/C |
Departure
| Time | 2026-04-25 22:01 |
|---|---|
| Airport | San Isidro Air Base (MDSI) |
Arrival
| Time | 2026-04-25 22:38 |
|---|---|
| Airport | Maria Montez International Airport (MDBH) |
| Time | Latitude | Longitude | Altitude | Speed | Heading |
|---|---|---|---|---|---|
| 2026-04-25 21:40 | 18.50232 | -69.76812 | 116 ft | 0 kts | 232° |
| 2026-04-25 21:40 | 18.50233 | -69.76812 | 116 ft | 0 kts | 232° |
| 2026-04-25 21:41 | 18.50225 | -69.76822 | 135 ft | 9 kts | 131° |
| 2026-04-25 21:41 | 18.50366 | -69.76541 | 142 ft | 73 kts | 50° |
| 2026-04-25 21:42 | 18.50885 | -69.76305 | 356 ft | 101 kts | 351° |
| 2026-04-25 21:42 | 18.51294 | -69.76813 | 326 ft | 92 kts | 247° |
| 2026-04-25 21:42 | 18.51156 | -69.77451 | 476 ft | 93 kts | 250° |
| 2026-04-25 21:42 | 18.50986 | -69.78145 | 445 ft | 102 kts | 241° |
| 2026-04-25 21:43 | 18.50830 | -69.78881 | 525 ft | 95 kts | 246° |
| 2026-04-25 21:43 | 18.50707 | -69.79645 | 469 ft | 96 kts | 242° |
| 2026-04-25 21:43 | 18.50467 | -69.80322 | 406 ft | 98 kts | 237° |
| 2026-04-25 21:43 | 18.50183 | -69.80971 | 403 ft | 100 kts | 228° |
| 2026-04-25 21:44 | 18.49822 | -69.81583 | 452 ft | 102 kts | 228° |
| 2026-04-25 21:44 | 18.49458 | -69.82226 | 406 ft | 107 kts | 229° |
| 2026-04-25 21:44 | 18.48759 | -69.83579 | 440 ft | 100 kts | 238° |
| 2026-04-25 21:45 | 18.48488 | -69.84251 | 498 ft | 98 kts | 236° |
| 2026-04-25 21:45 | 18.48369 | -69.84693 | 670 ft | 91 kts | 251° |
| 2026-04-25 21:45 | 18.48216 | -69.85641 | 538 ft | 111 kts | 235° |
| 2026-04-25 21:45 | 18.47883 | -69.86331 | 548 ft | 104 kts | 231° |
| 2026-04-25 21:46 | 18.47582 | -69.86994 | 567 ft | 104 kts | 237° |
| 2026-04-25 21:46 | 18.47222 | -69.87690 | 478 ft | 114 kts | 230° |
| 2026-04-25 21:46 | 18.46814 | -69.88403 | 476 ft | 112 kts | 232° |
| 2026-04-25 21:46 | 18.46429 | -69.89145 | 367 ft | 118 kts | 232° |
| 2026-04-25 21:47 | 18.46059 | -69.89829 | 518 ft | 90 kts | 245° |
| 2026-04-25 21:47 | 18.45895 | -69.90480 | 592 ft | 94 kts | 243° |
| 2026-04-25 21:47 | 18.45656 | -69.91146 | 590 ft | 104 kts | 235° |
| 2026-04-25 21:47 | 18.45161 | -69.91750 | 479 ft | 106 kts | 221° |
| 2026-04-25 21:48 | 18.44723 | -69.92372 | 449 ft | 100 kts | 237° |
| 2026-04-25 21:48 | 18.44463 | -69.93056 | 382 ft | 102 kts | 240° |
| 2026-04-25 21:48 | 18.44216 | -69.93738 | 447 ft | 100 kts | 240° |
| 2026-04-25 21:48 | 18.43952 | -69.94445 | 410 ft | 105 kts | 240° |
| 2026-04-25 21:49 | 18.43671 | -69.94942 | 313 ft | 68 kts | 185° |
| 2026-04-25 21:49 | 18.43368 | -69.94751 | 239 ft | 12 kts | 141° |
| 2026-04-25 21:49 | 18.43364 | -69.94696 | 79 ft | 19 kts | 85° |
| 2026-04-25 21:49 | 18.43361 | -69.94651 | 68 ft | 2 kts | 70° |
| 2026-04-25 21:50 | 18.43361 | -69.94646 | 50 ft | 0 kts | 76° |
| 2026-04-25 21:50 | 18.43363 | -69.94647 | 56 ft | 2 kts | 73° |
| 2026-04-25 21:50 | 18.43366 | -69.94646 | 55 ft | 1 kts | 73° |
| 2026-04-25 21:51 | 18.43365 | -69.94645 | 50 ft | 0 kts | 71° |
| 2026-04-25 21:52 | 18.43365 | -69.94646 | 50 ft | 0 kts | 71° |
| 2026-04-25 21:57 | 18.43367 | -69.94643 | 66 ft | 7 kts | 122° |
| 2026-04-25 21:57 | 18.43171 | -69.94882 | 43 ft | 85 kts | 239° |
| 2026-04-25 21:58 | 18.42908 | -69.95513 | 56 ft | 99 kts | 236° |
| 2026-04-25 21:58 | 18.42634 | -69.96177 | 232 ft | 86 kts | 246° |
| 2026-04-25 21:58 | 18.42482 | -69.96870 | 183 ft | 106 kts | 249° |
| 2026-04-25 21:58 | 18.42341 | -69.97608 | 329 ft | 95 kts | 252° |
| 2026-04-25 21:59 | 18.42314 | -69.98346 | 306 ft | 107 kts | 255° |
| 2026-04-25 21:59 | 18.42236 | -69.99137 | 266 ft | 109 kts | 250° |
| 2026-04-25 21:59 | 18.41967 | -69.99903 | 216 ft | 113 kts | 244° |
| 2026-04-25 22:00 | 18.41262 | -70.01176 | 364 ft | 98 kts | 234° |
| 2026-04-25 22:00 | 18.40984 | -70.01856 | 454 ft | 91 kts | 247° |
| 2026-04-25 22:00 | 18.40835 | -70.02563 | 328 ft | 106 kts | 245° |
| 2026-04-25 22:00 | 18.40656 | -70.03233 | 485 ft | 97 kts | 252° |
| 2026-04-25 22:01 | 18.40564 | -70.03959 | 553 ft | 92 kts | 259° |
| 2026-04-25 22:01 | 18.40624 | -70.04644 | 642 ft | 101 kts | 261° |
| 2026-04-25 22:01 | 18.40602 | -70.05382 | 713 ft | 98 kts | 257° |
| 2026-04-25 22:01 | 18.40583 | -70.05880 | 755 ft | 105 kts | 257° |
| 2026-04-25 22:02 | 18.40409 | -70.06868 | 880 ft | 99 kts | 252° |
| 2026-04-25 22:02 | 18.40291 | -70.07611 | 878 ft | 108 kts | 245° |
| 2026-04-25 22:02 | 18.39911 | -70.08335 | 693 ft | 117 kts | 228° |
| 2026-04-25 22:02 | 18.39462 | -70.09025 | 757 ft | 110 kts | 228° |
| 2026-04-25 22:03 | 18.39164 | -70.09710 | 848 ft | 100 kts | 243° |
| 2026-04-25 22:03 | 18.39018 | -70.10430 | 927 ft | 105 kts | 252° |
| 2026-04-25 22:03 | 18.38848 | -70.11233 | 890 ft | 112 kts | 250° |
| 2026-04-25 22:03 | 18.38659 | -70.11986 | 1033 ft | 100 kts | 248° |
| 2026-04-25 22:04 | 18.38493 | -70.12683 | 1175 ft | 99 kts | 249° |
| 2026-04-25 22:04 | 18.38380 | -70.13393 | 1281 ft | 103 kts | 261° |
| 2026-04-25 22:04 | 18.38251 | -70.14155 | 1224 ft | 108 kts | 253° |
| 2026-04-25 22:04 | 18.38059 | -70.14930 | 1245 ft | 112 kts | 248° |
| 2026-04-25 22:05 | 18.37846 | -70.15744 | 1179 ft | 116 kts | 246° |
| 2026-04-25 22:05 | 18.37595 | -70.16543 | 1139 ft | 115 kts | 244° |
| 2026-04-25 22:05 | 18.37325 | -70.17324 | 1177 ft | 116 kts | 241° |
| 2026-04-25 22:05 | 18.37025 | -70.18112 | 1168 ft | 118 kts | 239° |
| 2026-04-25 22:06 | 18.36681 | -70.18875 | 1165 ft | 116 kts | 236° |
| 2026-04-25 22:06 | 18.36276 | -70.19612 | 1091 ft | 116 kts | 233° |
| 2026-04-25 22:06 | 18.35805 | -70.20303 | 963 ft | 117 kts | 227° |
| 2026-04-25 22:06 | 18.35318 | -70.20970 | 884 ft | 115 kts | 229° |
| 2026-04-25 22:07 | 18.34822 | -70.21612 | 864 ft | 113 kts | 224° |
| 2026-04-25 22:07 | 18.34493 | -70.22021 | 916 ft | 107 kts | 223° |
| 2026-04-25 22:07 | 18.33782 | -70.22764 | 911 ft | 109 kts | 223° |
| 2026-04-25 22:07 | 18.33394 | -70.23418 | 1007 ft | 105 kts | 239° |
| 2026-04-25 22:08 | 18.33218 | -70.24135 | 1172 ft | 96 kts | 253° |
| 2026-04-25 22:08 | 18.33138 | -70.24817 | 1216 ft | 86 kts | 257° |
| 2026-04-25 22:08 | 18.33108 | -70.25446 | 1327 ft | 87 kts | 261° |
| 2026-04-25 22:08 | 18.33111 | -70.26165 | 1289 ft | 103 kts | 263° |
| 2026-04-25 22:09 | 18.33202 | -70.26875 | 1351 ft | 106 kts | 270° |
| 2026-04-25 22:09 | 18.33343 | -70.27638 | 1311 ft | 107 kts | 269° |
| 2026-04-25 22:09 | 18.33435 | -70.28412 | 1388 ft | 108 kts | 270° |
| 2026-04-25 22:09 | 18.33522 | -70.29206 | 1543 ft | 103 kts | 271° |
| 2026-04-25 22:10 | 18.33675 | -70.29949 | 1642 ft | 102 kts | 274° |
| 2026-04-25 22:10 | 18.33858 | -70.30654 | 1766 ft | 99 kts | 276° |
| 2026-04-25 22:10 | 18.33992 | -70.31104 | 1947 ft | 96 kts | 274° |
| 2026-04-25 22:10 | 18.34125 | -70.31868 | 1943 ft | 114 kts | 269° |
| 2026-04-25 22:11 | 18.34241 | -70.32736 | 1772 ft | 125 kts | 277° |
| 2026-04-25 22:11 | 18.34271 | -70.32882 | 1721 ft | 121 kts | 271° |
| 2026-04-25 22:11 | 18.34312 | -70.33442 | 1727 ft | 109 kts | 268° |
| 2026-04-25 22:11 | 18.34351 | -70.34225 | 1766 ft | 99 kts | 265° |
| 2026-04-25 22:12 | 18.34375 | -70.34965 | 1721 ft | 108 kts | 264° |
| 2026-04-25 22:12 | 18.34345 | -70.35795 | 1630 ft | 115 kts | 262° |
| 2026-04-25 22:12 | 18.34249 | -70.36628 | 1614 ft | 117 kts | 257° |
| 2026-04-25 22:12 | 18.34180 | -70.37211 | 1457 ft | 125 kts | 255° |
| 2026-04-25 22:13 | 18.33962 | -70.38403 | 1326 ft | 125 kts | 255° |
| 2026-04-25 22:13 | 18.33875 | -70.39273 | 1320 ft | 118 kts | 258° |
| 2026-04-25 22:13 | 18.33712 | -70.40121 | 1207 ft | 120 kts | 252° |
| 2026-04-25 22:13 | 18.33504 | -70.40968 | 1148 ft | 118 kts | 250° |
| 2026-04-25 22:14 | 18.33306 | -70.41799 | 1117 ft | 111 kts | 248° |
| 2026-04-25 22:14 | 18.33082 | -70.42542 | 1224 ft | 101 kts | 249° |
| 2026-04-25 22:14 | 18.32905 | -70.43288 | 1207 ft | 111 kts | 251° |
| 2026-04-25 22:14 | 18.32700 | -70.44097 | 1142 ft | 114 kts | 250° |
| 2026-04-25 22:15 | 18.32467 | -70.44869 | 1232 ft | 108 kts | 244° |
| 2026-04-25 22:15 | 18.32229 | -70.45616 | 1190 ft | 107 kts | 248° |
| 2026-04-25 22:15 | 18.32084 | -70.46417 | 1080 ft | 118 kts | 249° |
| 2026-04-25 22:16 | 18.31635 | -70.48001 | 927 ft | 109 kts | 245° |
| 2026-04-25 22:16 | 18.31455 | -70.48760 | 893 ft | 112 kts | 254° |
| 2026-04-25 22:16 | 18.31270 | -70.49495 | 915 ft | 100 kts | 253° |
| 2026-04-25 22:16 | 18.31263 | -70.49535 | 923 ft | 101 kts | 256° |
| 2026-04-25 22:17 | 18.31140 | -70.50242 | 808 ft | 99 kts | 252° |
| 2026-04-25 22:17 | 18.31048 | -70.50929 | 1010 ft | 84 kts | 253° |
| 2026-04-25 22:17 | 18.30979 | -70.51546 | 1218 ft | 90 kts | 255° |
| 2026-04-25 22:17 | 18.30873 | -70.52271 | 1198 ft | 101 kts | 254° |
| 2026-04-25 22:18 | 18.30765 | -70.52973 | 1305 ft | 96 kts | 258° |
| 2026-04-25 22:18 | 18.30840 | -70.53665 | 1308 ft | 102 kts | 271° |
| 2026-04-25 22:18 | 18.30968 | -70.54381 | 1317 ft | 104 kts | 278° |
| 2026-04-25 22:18 | 18.31074 | -70.55103 | 1381 ft | 102 kts | 275° |
| 2026-04-25 22:19 | 18.31225 | -70.55848 | 1433 ft | 107 kts | 274° |
| 2026-04-25 22:19 | 18.31344 | -70.56656 | 1205 ft | 114 kts | 274° |
| 2026-04-25 22:19 | 18.31477 | -70.57471 | 1067 ft | 116 kts | 274° |
| 2026-04-25 22:19 | 18.31683 | -70.58288 | 959 ft | 120 kts | 278° |
| 2026-04-25 22:20 | 18.31905 | -70.59118 | 835 ft | 120 kts | 278° |
| 2026-04-25 22:20 | 18.32139 | -70.59926 | 829 ft | 110 kts | 280° |
| 2026-04-25 22:20 | 18.32404 | -70.60640 | 907 ft | 109 kts | 282° |
| 2026-04-25 22:20 | 18.32679 | -70.61419 | 853 ft | 116 kts | 281° |
| 2026-04-25 22:21 | 18.32916 | -70.62246 | 742 ft | 123 kts | 275° |
| 2026-04-25 22:21 | 18.33055 | -70.63139 | 501 ft | 125 kts | 263° |
| 2026-04-25 22:21 | 18.33080 | -70.63944 | 676 ft | 102 kts | 262° |
| 2026-04-25 22:21 | 18.33067 | -70.64653 | 840 ft | 100 kts | 262° |
| 2026-04-25 22:22 | 18.33068 | -70.65434 | 776 ft | 111 kts | 257° |
| 2026-04-25 22:22 | 18.32970 | -70.66222 | 820 ft | 109 kts | 257° |
| 2026-04-25 22:22 | 18.32854 | -70.67047 | 668 ft | 120 kts | 250° |
| 2026-04-25 22:22 | 18.32755 | -70.67929 | 476 ft | 124 kts | 254° |
| 2026-04-25 22:23 | 18.32614 | -70.68758 | 561 ft | 113 kts | 252° |
| 2026-04-25 22:23 | 18.32451 | -70.69553 | 630 ft | 108 kts | 247° |
| 2026-04-25 22:23 | 18.32259 | -70.70334 | 626 ft | 109 kts | 247° |
| 2026-04-25 22:23 | 18.32111 | -70.71135 | 455 ft | 119 kts | 249° |
| 2026-04-25 22:24 | 18.31908 | -70.71977 | 353 ft | 114 kts | 250° |
| 2026-04-25 22:24 | 18.31850 | -70.72761 | 460 ft | 107 kts | 261° |
| 2026-04-25 22:24 | 18.31800 | -70.73468 | 623 ft | 94 kts | 265° |
| 2026-04-25 22:24 | 18.31805 | -70.74163 | 693 ft | 104 kts | 266° |
| 2026-04-25 22:25 | 18.31747 | -70.74974 | 561 ft | 111 kts | 252° |
| 2026-04-25 22:25 | 18.31595 | -70.75779 | 468 ft | 111 kts | 249° |
| 2026-04-25 22:25 | 18.31398 | -70.76536 | 580 ft | 102 kts | 250° |
| 2026-04-25 22:25 | 18.31207 | -70.77228 | 712 ft | 98 kts | 247° |
| 2026-04-25 22:26 | 18.30969 | -70.77980 | 525 ft | 109 kts | 240° |
| 2026-04-25 22:26 | 18.30759 | -70.78688 | 619 ft | 102 kts | 253° |
| 2026-04-25 22:26 | 18.30608 | -70.79428 | 625 ft | 109 kts | 247° |
| 2026-04-25 22:26 | 18.30442 | -70.80156 | 692 ft | 103 kts | 250° |
| 2026-04-25 22:27 | 18.30342 | -70.80955 | 556 ft | 107 kts | 259° |
| 2026-04-25 22:27 | 18.30381 | -70.81787 | 176 ft | 129 kts | 260° |
| 2026-04-25 22:27 | 18.30325 | -70.82668 | 97 ft | 121 kts | 255° |
| 2026-04-25 22:27 | 18.30263 | -70.83472 | 160 ft | 101 kts | 267° |
| 2026-04-25 22:28 | 18.30300 | -70.84259 | 154 ft | 109 kts | 268° |
| 2026-04-25 22:28 | 18.30361 | -70.85059 | 213 ft | 109 kts | 269° |
| 2026-04-25 22:28 | 18.30397 | -70.85863 | 286 ft | 102 kts | 268° |
| 2026-04-25 22:28 | 18.30488 | -70.86655 | 226 ft | 112 kts | 268° |
| 2026-04-25 22:29 | 18.30629 | -70.87413 | 416 ft | 105 kts | 277° |
| 2026-04-25 22:29 | 18.30820 | -70.88165 | 488 ft | 113 kts | 259° |
| 2026-04-25 22:29 | 18.30684 | -70.88983 | 475 ft | 113 kts | 247° |
| 2026-04-25 22:30 | 18.30346 | -70.90174 | 1102 ft | 71 kts | 262° |
| 2026-04-25 22:30 | 18.30391 | -70.90734 | 1244 ft | 79 kts | 285° |
| 2026-04-25 22:30 | 18.30569 | -70.91338 | 1309 ft | 97 kts | 278° |
| 2026-04-25 22:30 | 18.30657 | -70.91765 | 1491 ft | 87 kts | 274° |
| 2026-04-25 22:31 | 18.30855 | -70.92557 | 1854 ft | 66 kts | 279° |
| 2026-04-25 22:31 | 18.30993 | -70.92999 | 2139 ft | 72 kts | 291° |
| 2026-04-25 22:31 | 18.31203 | -70.93496 | 2277 ft | 89 kts | 299° |
| 2026-04-25 22:31 | 18.31482 | -70.94101 | 2358 ft | 80 kts | 281° |
| 2026-04-25 22:32 | 18.31700 | -70.94547 | 2774 ft | 61 kts | 290° |
| 2026-04-25 22:32 | 18.31599 | -70.94953 | 2964 ft | 69 kts | 243° |
| 2026-04-25 22:32 | 18.31387 | -70.95591 | 2622 ft | 115 kts | 242° |
| 2026-04-25 22:32 | 18.30927 | -70.96396 | 2113 ft | 131 kts | 231° |
| 2026-04-25 22:33 | 18.30377 | -70.97230 | 1487 ft | 146 kts | 229° |
| 2026-04-25 22:33 | 18.29989 | -70.98175 | 1281 ft | 128 kts | 244° |
| 2026-04-25 22:33 | 18.29673 | -70.99010 | 1068 ft | 131 kts | 238° |
| 2026-04-25 22:33 | 18.29333 | -70.99914 | 934 ft | 118 kts | 248° |
| 2026-04-25 22:34 | 18.29141 | -71.00807 | 757 ft | 122 kts | 253° |
| 2026-04-25 22:34 | 18.28970 | -71.01629 | 739 ft | 117 kts | 250° |
| 2026-04-25 22:34 | 18.28768 | -71.02518 | 459 ft | 128 kts | 248° |
| 2026-04-25 22:34 | 18.28557 | -71.03432 | 281 ft | 122 kts | 239° |
| 2026-04-25 22:35 | 18.28259 | -71.04209 | 383 ft | 112 kts | 243° |
| 2026-04-25 22:35 | 18.28068 | -71.04964 | 491 ft | 106 kts | 249° |
| 2026-04-25 22:35 | 18.27888 | -71.05729 | 527 ft | 108 kts | 253° |
| 2026-04-25 22:35 | 18.27758 | -71.06593 | 333 ft | 123 kts | 245° |
| 2026-04-25 22:36 | 18.27554 | -71.07419 | 368 ft | 118 kts | 249° |
| 2026-04-25 22:36 | 18.27315 | -71.08199 | 440 ft | 107 kts | 248° |
| 2026-04-25 22:36 | 18.27070 | -71.08932 | 460 ft | 108 kts | 235° |
| 2026-04-25 22:36 | 18.26708 | -71.09610 | 503 ft | 108 kts | 230° |
| 2026-04-25 22:37 | 18.26369 | -71.10339 | 457 ft | 115 kts | 232° |
| 2026-04-25 22:37 | 18.25971 | -71.11083 | 391 ft | 116 kts | 230° |
| 2026-04-25 22:37 | 18.25575 | -71.11756 | 395 ft | 87 kts | 219° |
| 2026-04-25 22:37 | 18.25237 | -71.12137 | 142 ft | 56 kts | 197° |
| 2026-04-25 22:38 | 18.25022 | -71.12322 | 21 ft | 27 kts | 296° |
| 2026-04-25 22:38 | 18.25041 | -71.12407 | 30 ft | 4 kts | 207° |
| 2026-04-25 22:38 | 18.25025 | -71.12421 | 16 ft | 0 kts | 208° |